Time;durP1;ratioP1;P1;durP2;ratioP2;P2;SDS_P1;SDS_P2;PMS_P1;PMS_P2;Temp;Humidity;BMP_temperature;BMP_pressure;BME280_temperature;BME280_humidity;BME280_pressure;Samples;Min_cycle;Max_cycle;Signal;HPM_P1;HPM_P2
2022/03/07 00:00:26;;;;;;;12.02;6.25;;;-0.80;99.90;;;;;;5116498;27;20035;-66
2022/03/07 00:02:52;;;;;;;12.05;4.97;;;-0.80;99.90;;;;;;5113562;27;20035;-67
2022/03/07 00:05:18;;;;;;;10.70;5.68;;;-0.90;99.90;;;;;;5115366;27;20043;-67
2022/03/07 00:07:44;;;;;;;15.18;7.60;;;-1.00;99.90;;;;;;5123233;27;20039;-67
2022/03/07 00:10:09;;;;;;;11.32;6.22;;;-1.10;99.90;;;;;;5116009;27;20046;-67
2022/03/07 00:12:35;;;;;;;13.95;7.38;;;-1.10;99.90;;;;;;5116585;27;20133;-67
2022/03/07 00:15:01;;;;;;;15.43;7.65;;;-1.10;99.90;;;;;;5116255;27;20039;-67
2022/03/07 00:17:26;;;;;;;19.48;8.10;;;-1.10;99.90;;;;;;5117280;27;20135;-67
2022/03/07 00:19:52;;;;;;;18.77;8.85;;;-1.10;99.90;;;;;;5117077;27;20035;-67
2022/03/07 00:22:18;;;;;;;15.63;7.93;;;-1.10;99.90;;;;;;5106051;28;20128;-67
2022/03/07 00:24:43;;;;;;;16.77;7.07;;;-1.10;99.90;;;;;;5115404;27;20066;-67
2022/03/07 00:27:09;;;;;;;15.70;7.45;;;-1.10;99.90;;;;;;5112645;27;20046;-67
2022/03/07 00:29:34;;;;;;;15.15;7.18;;;-1.10;99.90;;;;;;5110939;27;20035;-67
2022/03/07 00:32:00;;;;;;;11.88;6.40;;;-1.10;99.90;;;;;;5116997;27;20031;-67
2022/03/07 00:34:25;;;;;;;12.30;6.18;;;-1.10;99.90;;;;;;5113197;27;20043;-67
2022/03/07 00:36:51;;;;;;;9.50;5.30;;;-1.10;99.90;;;;;;5117251;27;20474;-67
2022/03/07 00:39:16;;;;;;;11.75;6.20;;;-1.10;99.90;;;;;;5117216;27;20481;-67
2022/03/07 00:41:42;;;;;;;16.25;7.18;;;-1.20;99.90;;;;;;5117166;27;20038;-67
2022/03/07 00:44:07;;;;;;;15.15;6.35;;;-1.30;99.90;;;;;;5116865;27;20035;-67
2022/03/07 00:46:33;;;;;;;10.18;5.72;;;-1.30;99.90;;;;;;5117487;27;20039;-67
2022/03/07 00:48:59;;;;;;;13.63;6.28;;;-1.30;99.90;;;;;;5117026;27;20520;-67
2022/03/07 00:51:24;;;;;;;14.38;7.38;;;-1.30;99.90;;;;;;5117285;27;20049;-67
2022/03/07 00:53:50;;;;;;;10.65;6.05;;;-1.30;99.90;;;;;;5116800;27;20042;-67
2022/03/07 00:56:16;;;;;;;12.90;6.63;;;-1.40;99.90;;;;;;5116138;27;20046;-67
2022/03/07 00:58:41;;;;;;;13.50;6.53;;;-1.50;99.90;;;;;;5133496;27;20039;-67
2022/03/07 01:01:07;;;;;;;12.80;6.22;;;-1.50;99.90;;;;;;5114273;27;20042;-67
2022/03/07 01:03:32;;;;;;;14.80;6.45;;;-1.60;99.90;;;;;;5113172;27;20500;-67
2022/03/07 01:05:58;;;;;;;11.15;5.50;;;-1.60;99.90;;;;;;5112210;27;20137;-67
2022/03/07 01:08:26;;;;;;;9.05;4.93;;;-1.60;99.90;;;;;;5111260;27;20046;-67
2022/03/07 01:10:52;;;;;;;11.48;5.38;;;-1.70;99.90;;;;;;5111732;27;20043;-68
2022/03/07 01:13:18;;;;;;;10.95;5.13;;;-1.80;99.90;;;;;;5109955;27;20043;-68
2022/03/07 01:15:44;;;;;;;8.63;5.03;;;-1.90;99.90;;;;;;5113056;27;20043;-68
2022/03/07 01:18:10;;;;;;;10.75;5.35;;;-1.90;99.90;;;;;;5111788;27;20387;-68
2022/03/07 01:20:36;;;;;;;9.55;5.38;;;-1.90;99.90;;;;;;5112871;27;20135;-68
2022/03/07 01:23:01;;;;;;;9.55;5.25;;;-1.90;99.90;;;;;;5111951;27;20534;-68
2022/03/07 01:25:29;;;;;;;8.82;4.93;;;-2.00;99.90;;;;;;5111997;27;20039;-68
2022/03/07 01:27:54;;;;;;;9.45;5.78;;;-2.10;99.90;;;;;;5111852;27;20054;-68
2022/03/07 01:30:20;;;;;;;12.88;5.85;;;-2.10;99.90;;;;;;5111128;27;20047;-68
2022/03/07 01:32:46;;;;;;;10.40;5.05;;;-2.10;99.90;;;;;;5104346;27;20039;-68
2022/03/07 01:35:12;;;;;;;17.38;6.43;;;-2.10;99.90;;;;;;5112192;27;20474;-68
2022/03/07 01:37:37;;;;;;;13.88;7.10;;;-2.20;99.90;;;;;;5111838;27;20462;-68
2022/03/07 01:40:04;;;;;;;11.98;6.30;;;-2.10;99.90;;;;;;5111172;27;20122;-68
2022/03/07 01:42:30;;;;;;;14.13;7.63;;;-2.20;99.90;;;;;;5111858;27;20123;-68
2022/03/07 01:45:10;;;;;;;15.68;6.95;;;-2.20;99.90;;;;;;5111388;27;20149;-69
2022/03/07 01:47:35;;;;;;;14.80;6.55;;;-2.20;99.90;;;;;;5110543;27;20043;-69
2022/03/07 01:50:01;;;;;;;11.13;5.80;;;-2.20;99.90;;;;;;5111631;27;20039;-68
2022/03/07 01:52:27;;;;;;;12.15;6.05;;;-2.20;99.90;;;;;;5111074;27;20054;-68
2022/03/07 01:54:52;;;;;;;13.90;6.65;;;-2.20;99.90;;;;;;5111349;27;20047;-68
2022/03/07 01:57:19;;;;;;;13.68;5.90;;;-2.20;99.90;;;;;;5111927;27;20384;-68
2022/03/07 01:59:44;;;;;;;11.18;5.82;;;-2.20;99.90;;;;;;5111810;27;20469;-68
2022/03/07 02:02:10;;;;;;;11.35;6.15;;;-2.20;99.90;;;;;;5109995;27;20036;-69
2022/03/07 02:04:39;;;;;;;12.50;6.75;;;-2.30;99.90;;;;;;5105997;27;20134;-69
2022/03/07 02:07:04;;;;;;;13.52;6.10;;;-2.30;99.90;;;;;;5112475;27;20046;-69
2022/03/07 02:09:30;;;;;;;12.65;5.95;;;-2.40;99.90;;;;;;5111190;27;20067;-69
2022/03/07 02:11:55;;;;;;;14.70;7.72;;;-2.40;99.90;;;;;;5114284;27;20497;-69
2022/03/07 02:14:22;;;;;;;12.50;6.50;;;-2.40;99.90;;;;;;5109956;27;20041;-69
2022/03/07 02:16:49;;;;;;;13.23;6.30;;;-2.40;99.90;;;;;;5109558;27;20043;-69
2022/03/07 02:19:15;;;;;;;13.52;6.25;;;-2.50;99.90;;;;;;5110733;28;20085;-69
2022/03/07 02:21:51;;;;;;;14.55;7.80;;;-2.60;99.90;;;;;;5111919;28;20043;-69
2022/03/07 02:24:18;;;;;;;14.93;7.65;;;-2.60;99.90;;;;;;5109455;27;20394;-69
2022/03/07 02:26:58;;;;;;;17.52;8.40;;;-2.60;99.90;;;;;;5112041;27;20039;-69
2022/03/07 02:29:24;;;;;;;16.50;8.45;;;-2.60;99.90;;;;;;5104582;28;20039;-69
2022/03/07 02:31:50;;;;;;;14.30;8.02;;;-2.60;99.90;;;;;;5110816;28;20127;-69
2022/03/07 02:34:15;;;;;;;21.88;8.88;;;-2.50;99.90;;;;;;5110430;28;20047;-69
2022/03/07 02:36:41;;;;;;;17.25;8.63;;;-2.60;99.90;;;;;;5111349;28;20039;-69
2022/03/07 02:39:07;;;;;;;17.77;8.77;;;-2.60;99.90;;;;;;5111651;27;20100;-69
2022/03/07 02:41:33;;;;;;;17.58;7.97;;;-2.60;99.90;;;;;;5115429;27;20049;-69
2022/03/07 02:43:58;;;;;;;16.08;7.55;;;-2.60;99.90;;;;;;5112850;27;20434;-69
2022/03/07 02:46:24;;;;;;;17.80;7.78;;;-2.70;99.90;;;;;;5112839;27;20039;-69
2022/03/07 02:48:49;;;;;;;18.10;7.15;;;-2.60;99.90;;;;;;5114950;27;20028;-69
2022/03/07 02:51:15;;;;;;;14.27;7.53;;;-2.60;99.90;;;;;;5109962;27;20063;-69
2022/03/07 02:53:41;;;;;;;14.30;8.27;;;-2.70;99.90;;;;;;5115283;27;20023;-69
2022/03/07 02:56:06;;;;;;;16.77;8.98;;;-2.70;99.90;;;;;;5115831;27;20201;-69
2022/03/07 02:58:32;;;;;;;12.88;6.53;;;-2.70;99.90;;;;;;5129240;27;20042;-69
2022/03/07 03:00:57;;;;;;;18.00;7.43;;;-2.70;99.90;;;;;;5114755;27;20058;-69
2022/03/07 03:03:23;;;;;;;16.23;7.53;;;-2.70;99.90;;;;;;5112638;27;20043;-70
2022/03/07 03:05:48;;;;;;;11.40;5.90;;;-2.80;99.90;;;;;;5115232;27;20043;-69
2022/03/07 03:08:14;;;;;;;12.38;6.90;;;-2.80;99.90;;;;;;5114933;27;20042;-70
2022/03/07 03:10:40;;;;;;;16.27;7.07;;;-2.80;99.90;;;;;;5114398;27;20039;-69
2022/03/07 03:13:05;;;;;;;14.98;7.05;;;-2.80;99.90;;;;;;5115410;27;20035;-70
2022/03/07 03:15:31;;;;;;;13.73;7.05;;;-2.80;99.90;;;;;;5114982;27;21348;-70
2022/03/07 03:17:56;;;;;;;11.93;6.75;;;-2.80;99.90;;;;;;5092725;27;20400;-70
2022/03/07 03:20:22;;;;;;;15.88;6.82;;;-2.90;99.90;;;;;;5132681;27;20041;-69
2022/03/07 03:22:47;;;;;;;15.18;7.40;;;-2.90;99.90;;;;;;5116291;27;20131;-70
2022/03/07 03:25:16;;;;;;;17.23;7.85;;;-2.80;99.90;;;;;;5115369;27;20039;-69
2022/03/07 03:27:43;;;;;;;14.18;7.70;;;-2.90;99.90;;;;;;5109752;27;20035;-70
2022/03/07 03:30:11;;;;;;;21.50;8.98;;;-2.80;99.90;;;;;;5114154;27;20043;-70
2022/03/07 03:32:37;;;;;;;14.52;7.85;;;-2.70;99.90;;;;;;5113900;27;20075;-70
2022/03/07 03:35:03;;;;;;;11.85;6.00;;;-2.80;99.90;;;;;;5115022;27;20062;-70
2022/03/07 03:37:29;;;;;;;11.77;5.80;;;-2.70;99.90;;;;;;5113138;27;20521;-70
2022/03/07 03:39:54;;;;;;;10.25;6.15;;;-2.80;99.90;;;;;;5114128;27;20076;-70
2022/03/07 03:42:24;;;;;;;13.45;6.68;;;-2.90;99.90;;;;;;5133113;27;20118;-69
2022/03/07 03:44:50;;;;;;;14.25;5.97;;;-2.90;99.90;;;;;;5112907;27;20043;-70
2022/03/07 03:47:15;;;;;;;8.20;4.95;;;-3.00;99.90;;;;;;5112419;27;20035;-70
2022/03/07 03:49:41;;;;;;;11.80;5.85;;;-3.00;99.90;;;;;;5113636;27;20035;-70
2022/03/07 03:52:07;;;;;;;14.23;6.55;;;-3.10;99.90;;;;;;5113876;27;20046;-70
2022/03/07 03:54:33;;;;;;;10.30;5.68;;;-3.10;99.90;;;;;;5113521;27;20361;-70
2022/03/07 03:56:59;;;;;;;12.20;6.70;;;-3.10;99.90;;;;;;5133143;27;20035;-70
2022/03/07 03:59:24;;;;;;;12.63;6.55;;;-3.10;99.90;;;;;;5113266;27;20035;-70
2022/03/07 04:01:50;;;;;;;12.27;6.45;;;-3.20;99.90;;;;;;5112092;27;20481;-70
2022/03/07 04:04:16;;;;;;;16.77;6.25;;;-3.20;99.90;;;;;;5112409;27;20473;-69
2022/03/07 04:06:42;;;;;;;12.85;6.70;;;-3.20;99.90;;;;;;5114134;27;20132;-70
2022/03/07 04:09:19;;;;;;;12.73;6.10;;;-3.20;99.90;;;;;;5113490;27;20035;-69
2022/03/07 04:11:46;;;;;;;9.55;5.40;;;-3.20;99.90;;;;;;5112058;27;20449;-69
2022/03/07 04:14:12;;;;;;;9.52;5.00;;;-3.20;99.90;;;;;;5113565;27;20054;-69
2022/03/07 04:16:38;;;;;;;13.13;6.57;;;-3.20;99.90;;;;;;5114063;27;20031;-69
2022/03/07 04:19:06;;;;;;;43.83;6.35;;;-3.20;99.90;;;;;;5109741;27;20032;-69
2022/03/07 04:21:35;;;;;;;14.60;6.60;;;-3.30;99.90;;;;;;5112909;27;20150;-69
2022/03/07 04:24:01;;;;;;;15.85;5.97;;;-3.30;99.90;;;;;;5113630;27;20390;-69
2022/03/07 04:26:27;;;;;;;14.82;7.78;;;-3.20;99.90;;;;;;5114009;27;20035;-69
2022/03/07 04:28:53;;;;;;;15.57;7.15;;;-3.20;99.90;;;;;;5112793;27;20043;-69
2022/03/07 04:31:19;;;;;;;18.98;7.40;;;-3.30;99.90;;;;;;5114000;27;20490;-69
2022/03/07 04:33:44;;;;;;;14.70;7.47;;;-3.30;99.90;;;;;;5111821;27;20075;-69
2022/03/07 04:36:10;;;;;;;14.90;7.75;;;-3.30;99.90;;;;;;5111776;27;20122;-69
2022/03/07 04:38:36;;;;;;;16.92;7.93;;;-3.30;99.90;;;;;;5112142;27;20067;-69
2022/03/07 04:41:02;;;;;;;14.18;7.35;;;-3.40;99.90;;;;;;5111210;27;20027;-69
2022/03/07 04:43:28;;;;;;;17.23;8.23;;;-3.40;99.90;;;;;;5111223;27;20084;-69
2022/03/07 04:45:54;;;;;;;19.00;8.80;;;-3.40;99.90;;;;;;5109754;27;20492;-69
2022/03/07 04:48:20;;;;;;;17.77;8.90;;;-3.40;99.90;;;;;;5110830;27;20039;-69
2022/03/07 04:50:46;;;;;;;17.20;9.02;;;-3.30;99.90;;;;;;5112010;27;20370;-69
2022/03/07 04:53:11;;;;;;;16.80;8.13;;;-3.30;99.90;;;;;;5113372;27;20045;-69
2022/03/07 04:55:37;;;;;;;17.13;8.38;;;-3.20;99.90;;;;;;5112162;27;20039;-69
2022/03/07 04:58:03;;;;;;;17.10;8.57;;;-3.10;99.90;;;;;;5108317;27;20039;-69
2022/03/07 05:00:29;;;;;;;17.05;8.10;;;-3.10;99.90;;;;;;5110197;27;20071;-69
2022/03/07 05:02:55;;;;;;;17.55;8.45;;;-3.10;99.90;;;;;;5113445;27;20158;-69
2022/03/07 05:05:20;;;;;;;14.77;7.28;;;-3.10;99.90;;;;;;5104354;27;20047;-69
2022/03/07 05:07:49;;;;;;;18.67;7.50;;;-3.20;99.90;;;;;;5111736;27;20031;-69
2022/03/07 05:10:19;;;;;;;15.65;6.88;;;-3.30;99.90;;;;;;5109884;27;20481;-69
2022/03/07 05:12:45;;;;;;;12.60;6.50;;;-3.40;99.90;;;;;;5112213;27;20039;-69
2022/03/07 05:15:11;;;;;;;16.33;8.18;;;-3.50;99.90;;;;;;5110220;27;20035;-69
2022/03/07 05:17:41;;;;;;;14.05;6.80;;;-3.60;99.90;;;;;;5109488;27;20031;-69
2022/03/07 05:20:08;;;;;;;12.68;6.80;;;-3.60;99.90;;;;;;5112190;27;20804;-69
2022/03/07 05:22:33;;;;;;;18.65;7.70;;;-3.60;99.90;;;;;;5111739;27;20057;-69
2022/03/07 05:24:59;;;;;;;14.52;7.80;;;-3.60;99.90;;;;;;5112059;27;20031;-69
2022/03/07 05:27:24;;;;;;;18.08;7.88;;;-3.70;99.90;;;;;;5112477;27;20047;-68
2022/03/07 05:29:50;;;;;;;20.55;8.32;;;-3.60;99.90;;;;;;5112255;27;20092;-68
2022/03/07 05:32:15;;;;;;;23.88;10.13;;;-3.60;99.90;;;;;;5111910;27;20035;-68
2022/03/07 05:34:41;;;;;;;22.77;9.52;;;-3.60;99.90;;;;;;5111974;27;20039;-69
2022/03/07 05:37:06;;;;;;;29.15;10.55;;;-3.40;99.90;;;;;;5110486;27;20034;-69
2022/03/07 05:39:32;;;;;;;22.67;9.95;;;-3.40;99.90;;;;;;5111751;27;20039;-69
2022/03/07 05:41:58;;;;;;;24.50;10.15;;;-3.40;99.90;;;;;;5125433;27;20039;-69
2022/03/07 05:44:23;;;;;;;28.38;10.57;;;-3.30;99.90;;;;;;5091737;27;20561;-69
2022/03/07 05:46:49;;;;;;;24.42;10.63;;;-3.30;99.90;;;;;;5111916;27;20039;-68
2022/03/07 05:49:14;;;;;;;26.17;10.25;;;-3.20;99.90;;;;;;5113410;27;20053;-68
2022/03/07 05:51:41;;;;;;;24.60;11.68;;;-3.30;99.90;;;;;;5113489;27;20129;-69
2022/03/07 05:54:06;;;;;;;28.33;11.80;;;-3.30;99.90;;;;;;5113255;27;20053;-68
2022/03/07 05:56:32;;;;;;;26.95;11.25;;;-3.30;99.90;;;;;;5111254;27;20035;-68
2022/03/07 05:58:57;;;;;;;25.42;10.82;;;-3.20;99.90;;;;;;5113131;27;20062;-69
2022/03/07 06:01:23;;;;;;;22.58;10.18;;;-3.30;99.90;;;;;;5113385;27;20075;-69
2022/03/07 06:03:48;;;;;;;27.75;10.70;;;-3.30;99.90;;;;;;5113574;27;20035;-69
2022/03/07 06:06:14;;;;;;;23.55;11.15;;;-3.30;99.90;;;;;;5113284;27;20043;-68
2022/03/07 06:08:39;;;;;;;27.10;10.65;;;-3.30;99.90;;;;;;5106011;28;20543;-69
2022/03/07 06:11:05;;;;;;;24.60;11.05;;;-3.20;99.90;;;;;;5103129;28;20058;-69
2022/03/07 06:13:31;;;;;;;21.15;9.00;;;-3.20;99.90;;;;;;5108222;27;20392;-69
2022/03/07 06:15:56;;;;;;;19.38;9.45;;;-3.20;99.90;;;;;;5112370;27;20076;-69
2022/03/07 06:18:22;;;;;;;26.42;9.82;;;-3.10;99.90;;;;;;5112119;27;20070;-68
2022/03/07 06:20:47;;;;;;;25.15;9.88;;;-3.00;99.90;;;;;;5112022;27;20077;-69
2022/03/07 06:23:13;;;;;;;24.75;9.38;;;-2.90;99.90;;;;;;5106454;27;20040;-69
2022/03/07 06:25:38;;;;;;;22.92;10.18;;;-2.90;99.90;;;;;;5106911;27;20088;-68
2022/03/07 06:28:04;;;;;;;22.88;9.38;;;-2.90;99.90;;;;;;5105614;28;20051;-68
2022/03/07 06:30:30;;;;;;;24.75;11.43;;;-2.80;99.90;;;;;;5097132;27;20063;-68
2022/03/07 06:32:56;;;;;;;25.33;12.13;;;-2.80;99.90;;;;;;5098752;28;20543;-68
2022/03/07 06:35:22;;;;;;;24.40;10.35;;;-2.80;99.90;;;;;;5111863;28;20043;-68
2022/03/07 06:37:52;;;;;;;20.80;10.27;;;-2.70;99.90;;;;;;5112493;28;20122;-68
2022/03/07 06:40:19;;;;;;;24.65;10.68;;;-2.70;99.90;;;;;;5109744;28;20509;-68
2022/03/07 06:42:46;;;;;;;28.40;10.88;;;-2.70;99.90;;;;;;5112528;28;20096;-68
2022/03/07 06:45:12;;;;;;;24.45;10.98;;;-2.60;99.90;;;;;;5100490;28;20040;-69
2022/03/07 06:47:39;;;;;;;22.83;10.68;;;-2.50;99.90;;;;;;5111450;28;20071;-69
2022/03/07 06:50:05;;;;;;;31.48;12.00;;;-2.50;99.90;;;;;;5110290;28;20062;-69
2022/03/07 06:52:31;;;;;;;27.38;12.05;;;-2.40;99.90;;;;;;5111346;28;20047;-69
2022/03/07 06:54:57;;;;;;;23.48;12.32;;;-2.40;99.90;;;;;;5110565;27;20042;-69
2022/03/07 06:57:23;;;;;;;27.10;12.75;;;-2.30;99.90;;;;;;5109646;28;20089;-69
2022/03/07 06:59:49;;;;;;;29.08;13.02;;;-2.20;99.90;;;;;;5111252;28;20055;-69
2022/03/07 07:02:16;;;;;;;27.35;12.65;;;-2.20;99.90;;;;;;5111595;28;20052;-69
2022/03/07 07:04:41;;;;;;;34.75;12.13;;;-2.10;99.90;;;;;;5093767;28;20067;-68
2022/03/07 07:07:07;;;;;;;25.92;11.55;;;-2.10;99.90;;;;;;5111715;28;20133;-68
2022/03/07 07:09:32;;;;;;;28.70;12.70;;;-2.10;99.90;;;;;;5110841;28;20104;-69
2022/03/07 07:11:58;;;;;;;32.58;12.18;;;-1.90;99.90;;;;;;5108398;28;20043;-69
2022/03/07 07:14:24;;;;;;;29.23;13.15;;;-1.90;99.90;;;;;;5110628;28;20035;-68
2022/03/07 07:16:49;;;;;;;26.00;12.85;;;-1.80;99.90;;;;;;5110824;28;20236;-69
2022/03/07 07:19:15;;;;;;;28.73;12.88;;;-1.70;99.90;;;;;;5111213;28;20036;-69
2022/03/07 07:21:40;;;;;;;31.35;13.68;;;-1.70;99.90;;;;;;5111760;28;20504;-70
2022/03/07 07:24:07;;;;;;;28.77;12.90;;;-1.60;99.90;;;;;;5111526;28;20045;-69
2022/03/07 07:26:33;;;;;;;29.02;12.90;;;-1.50;99.90;;;;;;5110866;27;20039;-69
2022/03/07 07:28:58;;;;;;;29.67;14.50;;;-1.40;99.90;;;;;;5114752;27;20039;-70
2022/03/07 07:31:24;;;;;;;31.17;13.60;;;-1.40;99.90;;;;;;5105853;27;20459;-70
2022/03/07 07:33:50;;;;;;;33.83;15.02;;;-1.30;99.90;;;;;;5109677;27;20117;-70
2022/03/07 07:36:15;;;;;;;32.65;14.38;;;-1.20;99.90;;;;;;5114497;27;20043;-70
2022/03/07 07:38:41;;;;;;;34.40;15.20;;;-1.10;99.90;;;;;;5106522;27;20054;-70
2022/03/07 07:41:07;;;;;;;31.23;15.48;;;-1.10;99.90;;;;;;5112804;27;20130;-70
2022/03/07 07:43:33;;;;;;;29.70;14.70;;;-1.00;99.90;;;;;;5114344;27;20035;-70
2022/03/07 07:45:59;;;;;;;35.85;16.00;;;-0.80;99.90;;;;;;5107385;27;20529;-70
2022/03/07 07:48:24;;;;;;;33.97;15.85;;;-0.90;99.90;;;;;;5097164;27;20031;-70
2022/03/07 07:50:50;;;;;;;36.60;17.60;;;-0.80;99.90;;;;;;5113598;27;20028;-70
2022/03/07 07:53:15;;;;;;;29.90;14.85;;;-0.60;99.90;;;;;;5111377;27;20031;-70
2022/03/07 07:55:41;;;;;;;36.55;16.75;;;-0.60;99.90;;;;;;5112231;27;20071;-70
2022/03/07 07:58:07;;;;;;;36.05;17.02;;;-0.60;99.90;;;;;;5114284;27;20065;-70
2022/03/07 08:00:32;;;;;;;36.08;17.40;;;-0.40;99.90;;;;;;5130636;27;20083;-71
2022/03/07 08:02:58;;;;;;;41.88;19.58;;;-0.30;99.90;;;;;;5112101;27;20035;-71
2022/03/07 08:05:23;;;;;;;42.05;19.65;;;-0.10;99.90;;;;;;5113802;27;20039;-70
2022/03/07 08:07:50;;;;;;;39.67;19.13;;;0.00;99.90;;;;;;5110214;27;20122;-71
2022/03/07 08:10:17;;;;;;;44.15;20.25;;;0.10;99.90;;;;;;5113830;27;20054;-70
2022/03/07 08:12:43;;;;;;;46.63;20.15;;;0.30;99.90;;;;;;5111340;27;20045;-70
2022/03/07 08:15:13;;;;;;;43.08;20.05;;;0.40;99.90;;;;;;5114116;27;20050;-70
2022/03/07 08:17:43;;;;;;;48.25;21.40;;;0.50;99.90;;;;;;5109759;27;20077;-70
2022/03/07 08:20:09;;;;;;;43.30;19.77;;;0.80;99.90;;;;;;5112438;27;20034;-71
2022/03/07 08:22:35;;;;;;;45.03;20.02;;;0.90;99.90;;;;;;5113468;27;20035;-71
2022/03/07 08:25:00;;;;;;;40.97;18.27;;;1.20;99.90;;;;;;5102087;27;20435;-71
2022/03/07 08:27:26;;;;;;;38.47;19.13;;;1.40;99.90;;;;;;5113208;27;20050;-70
2022/03/07 08:29:51;;;;;;;44.50;20.10;;;1.60;99.90;;;;;;5113370;27;20035;-70
2022/03/07 08:32:17;;;;;;;48.88;21.42;;;1.80;99.90;;;;;;5107889;27;20401;-70
2022/03/07 08:34:42;;;;;;;45.50;22.00;;;2.00;99.90;;;;;;5112397;27;20039;-70
2022/03/07 08:37:08;;;;;;;48.88;20.23;;;2.00;99.90;;;;;;5131337;27;20039;-70
2022/03/07 08:39:33;;;;;;;42.22;18.58;;;2.10;99.90;;;;;;5130955;27;20043;-70
2022/03/07 08:41:59;;;;;;;44.78;18.60;;;2.20;99.90;;;;;;5114127;27;20035;-70
2022/03/07 08:44:25;;;;;;;40.13;17.95;;;2.20;99.90;;;;;;5109349;27;20128;-70
2022/03/07 08:46:50;;;;;;;46.33;18.13;;;2.30;99.90;;;;;;5113058;27;20125;-70
2022/03/07 08:49:16;;;;;;;43.15;18.13;;;2.30;99.90;;;;;;5112332;27;20125;-70
2022/03/07 08:51:43;;;;;;;38.60;16.35;;;2.40;99.90;;;;;;5113012;27;20039;-70
2022/03/07 08:54:09;;;;;;;42.95;16.95;;;2.50;99.90;;;;;;5112990;27;20042;-70
2022/03/07 08:56:34;;;;;;;34.92;13.68;;;2.60;99.90;;;;;;5109676;27;20027;-69
2022/03/07 08:59:02;;;;;;;39.33;16.42;;;2.70;99.90;;;;;;5112605;27;20134;-70
2022/03/07 09:01:27;;;;;;;40.80;17.95;;;2.80;99.90;;;;;;5107721;27;20042;-70
2022/03/07 09:03:53;;;;;;;38.60;15.82;;;3.00;99.90;;;;;;5112752;27;20047;-70
2022/03/07 09:06:19;;;;;;;42.35;15.80;;;3.10;99.90;;;;;;5112925;27;20099;-70
2022/03/07 09:08:44;;;;;;;30.85;13.18;;;3.20;99.90;;;;;;5109771;27;20038;-70
2022/03/07 09:11:10;;;;;;;36.30;14.43;;;3.30;99.90;;;;;;5109408;27;20058;-70
2022/03/07 09:13:35;;;;;;;32.90;13.93;;;3.50;99.90;;;;;;5110304;27;20466;-70
2022/03/07 09:16:01;;;;;;;30.63;13.13;;;3.60;99.90;;;;;;5109117;27;20043;-70
2022/03/07 09:18:27;;;;;;;26.45;10.73;;;3.70;99.90;;;;;;5112283;27;20100;-70
2022/03/07 09:20:54;;;;;;;28.73;12.65;;;3.80;99.90;;;;;;5111871;27;20462;-70
2022/03/07 09:23:20;;;;;;;30.95;11.88;;;3.90;99.90;;;;;;5110859;27;20485;-70
2022/03/07 09:25:46;;;;;;;25.20;11.15;;;4.00;99.90;;;;;;5112484;27;20113;-70
2022/03/07 09:28:11;;;;;;;26.75;10.95;;;4.10;99.90;;;;;;5112347;27;20096;-70
2022/03/07 09:30:37;;;;;;;28.30;11.90;;;4.20;99.90;;;;;;5111469;27;20043;-69
2022/03/07 09:33:03;;;;;;;31.02;12.98;;;4.20;99.90;;;;;;5106944;27;20050;-70
2022/03/07 09:35:33;;;;;;;27.92;10.60;;;4.30;99.90;;;;;;5112588;27;20043;-70
2022/03/07 09:37:59;;;;;;;24.52;10.65;;;4.40;99.90;;;;;;5112548;27;20039;-69
2022/03/07 09:40:25;;;;;;;23.52;10.23;;;4.40;99.90;;;;;;5111485;27;20076;-69
2022/03/07 09:42:52;;;;;;;25.52;10.40;;;4.50;99.90;;;;;;5112077;27;20094;-69
2022/03/07 09:45:18;;;;;;;27.60;10.75;;;4.60;99.90;;;;;;5112036;27;20039;-70
2022/03/07 09:47:45;;;;;;;27.65;10.27;;;4.60;99.90;;;;;;5108496;28;20036;-70
2022/03/07 09:50:11;;;;;;;26.73;10.80;;;4.70;99.90;;;;;;5107526;27;20378;-70
2022/03/07 09:52:37;;;;;;;28.10;10.85;;;4.90;99.90;;;;;;5108723;27;20118;-69
2022/03/07 09:55:03;;;;;;;30.48;12.45;;;4.90;99.90;;;;;;5112806;27;20545;-69
2022/03/07 09:57:29;;;;;;;25.45;12.55;;;4.90;99.90;;;;;;5112437;27;20367;-69
2022/03/07 09:59:56;;;;;;;29.85;11.82;;;4.90;99.90;;;;;;5111902;27;20035;-69
2022/03/07 10:02:24;;;;;;;25.50;10.90;;;5.00;99.90;;;;;;5111960;27;20039;-70
2022/03/07 10:04:50;;;;;;;20.83;7.63;;;5.10;99.90;;;;;;5104472;27;20039;-71
2022/03/07 10:07:16;;;;;;;25.17;10.50;;;5.20;99.90;;;;;;5112539;27;20088;-68
2022/03/07 10:09:42;;;;;;;26.77;10.90;;;5.30;99.90;;;;;;5110550;27;20039;-68
2022/03/07 10:12:10;;;;;;;27.15;11.40;;;5.40;99.90;;;;;;5112448;27;20042;-69
2022/03/07 10:14:44;;;;;;;25.67;11.55;;;5.50;99.90;;;;;;5111762;27;20075;-69
2022/03/07 10:17:20;;;;;;;29.55;12.38;;;5.50;99.90;;;;;;5128390;27;20074;-69
2022/03/07 10:19:55;;;;;;;27.05;11.50;;;5.60;99.90;;;;;;5114226;27;20050;-69
2022/03/07 10:22:24;;;;;;;30.45;12.25;;;5.70;99.90;;;;;;5094550;28;20435;-68
2022/03/07 10:25:23;;;;;;;26.58;11.60;;;5.80;99.90;;;;;;5097039;27;20043;-68
2022/03/07 10:27:49;;;;;;;31.20;12.43;;;5.90;99.90;;;;;;5097469;28;20051;-69
2022/03/07 10:30:17;;;;;;;23.10;9.75;;;6.10;99.90;;;;;;5108894;27;20436;-71
2022/03/07 10:32:50;;;;;;;27.05;11.57;;;6.40;99.90;;;;;;5099620;28;20043;-69
2022/03/07 10:35:26;;;;;;;27.30;10.77;;;6.50;99.90;;;;;;5103172;28;20039;-68
2022/03/07 10:38:16;;;;;;;26.75;11.60;;;6.40;99.90;;;;;;5112729;28;20477;-68
2022/03/07 10:40:47;;;;;;;27.10;11.13;;;6.30;99.90;;;;;;5115193;27;20039;-68
2022/03/07 10:43:13;;;;;;;23.67;11.10;;;6.30;99.90;;;;;;5095160;28;20035;-68
2022/03/07 10:49:21;;;;;;;21.73;9.70;;;6.30;99.90;;;;;;5133570;28;20042;-68
2022/03/07 10:51:54;;;;;;;24.77;9.82;;;6.50;99.90;;;;;;5114879;28;20039;-67
2022/03/07 10:54:21;;;;;;;24.45;10.07;;;6.70;99.90;;;;;;5115166;28;20130;-68
2022/03/07 10:56:55;;;;;;;21.50;10.07;;;6.60;99.90;;;;;;5115835;28;20118;-68
2022/03/07 10:59:32;;;;;;;26.08;9.20;;;6.60;99.90;;;;;;5099170;27;20490;-68
2022/03/07 11:02:11;;;;;;;18.95;8.30;;;6.60;99.90;;;;;;5118380;27;20050;-68
2022/03/07 11:04:38;;;;;;;20.73;8.73;;;6.50;99.90;;;;;;5119200;27;20074;-68
2022/03/07 11:07:05;;;;;;;20.10;8.63;;;6.50;99.90;;;;;;5119305;27;20568;-68
2022/03/07 11:09:31;;;;;;;20.30;9.32;;;6.50;99.90;;;;;;5118747;27;20043;-68
2022/03/07 11:11:57;;;;;;;20.67;8.80;;;6.60;99.90;;;;;;5119432;27;20035;-67
2022/03/07 11:14:25;;;;;;;22.92;9.27;;;6.70;99.90;;;;;;5119269;27;20134;-67
2022/03/07 11:16:56;;;;;;;21.63;9.68;;;6.90;99.90;;;;;;5119167;27;20561;-68
2022/03/07 11:19:26;;;;;;;17.85;9.10;;;7.10;99.90;;;;;;5118974;27;20469;-67
2022/03/07 11:21:53;;;;;;;19.58;9.20;;;7.30;99.90;;;;;;5102297;27;20450;-67
2022/03/07 11:24:22;;;;;;;20.10;8.50;;;7.50;99.90;;;;;;5119186;27;20038;-67
2022/03/07 11:26:50;;;;;;;17.25;8.32;;;7.60;99.90;;;;;;5114291;28;20093;-68
2022/03/07 11:29:17;;;;;;;19.98;8.20;;;7.60;99.90;;;;;;5109427;27;20035;-66
2022/03/07 11:31:43;;;;;;;17.83;8.80;;;7.80;99.90;;;;;;5118410;27;20397;-66
2022/03/07 11:34:10;;;;;;;22.38;9.88;;;7.90;99.90;;;;;;5116082;27;20533;-66
2022/03/07 11:36:43;;;;;;;19.63;9.38;;;8.00;99.90;;;;;;5118966;27;20167;-68
2022/03/07 11:39:10;;;;;;;18.35;7.60;;;7.80;99.90;;;;;;5114705;27;20055;-67
2022/03/07 11:41:39;;;;;;;21.20;8.10;;;7.60;99.90;;;;;;5117919;27;20052;-67
2022/03/07 11:44:09;;;;;;;23.30;8.63;;;7.40;99.90;;;;;;5118672;27;20066;-67
2022/03/07 11:46:47;;;;;;;18.02;8.60;;;7.30;99.90;;;;;;5118243;27;20138;-68
2022/03/07 11:49:26;;;;;;;21.50;8.65;;;7.30;99.90;;;;;;5097131;28;20096;-68
2022/03/07 11:51:58;;;;;;;19.65;8.52;;;7.40;99.90;;;;;;5105628;27;20045;-66
2022/03/07 11:54:23;;;;;;;20.95;7.65;;;7.50;99.90;;;;;;5103216;28;20044;-68
2022/03/07 11:56:49;;;;;;;12.23;5.85;;;7.60;99.90;;;;;;5111688;27;20062;-68
2022/03/07 11:59:15;;;;;;;16.42;6.43;;;7.70;99.90;;;;;;5116226;27;20046;-69
2022/03/07 12:01:52;;;;;;;14.05;6.70;;;7.80;99.90;;;;;;5116547;27;20071;-66
2022/03/07 12:04:18;;;;;;;15.55;7.20;;;7.90;99.90;;;;;;5115809;27;20107;-67
2022/03/07 12:06:47;;;;;;;16.55;6.35;;;8.00;99.90;;;;;;5115522;27;20043;-68
2022/03/07 12:09:42;;;;;;;9.75;4.95;;;8.00;99.90;;;;;;5115369;27;20039;-68
2022/03/07 12:12:15;;;;;;;10.40;4.60;;;8.10;99.90;;;;;;5114224;27;20043;-69
2022/03/07 12:14:44;;;;;;;10.13;4.50;;;8.10;99.90;;;;;;5115174;27;20097;-71
2022/03/07 12:17:14;;;;;;;10.82;4.68;;;8.20;99.90;;;;;;5133133;27;20092;-69
2022/03/07 12:19:41;;;;;;;12.05;5.15;;;8.10;99.60;;;;;;5114657;27;20031;-68
2022/03/07 12:22:12;;;;;;;17.35;6.28;;;8.00;99.90;;;;;;5113835;27;20046;-68
2022/03/07 12:24:39;;;;;;;9.00;4.65;;;8.00;99.90;;;;;;5114257;27;20039;-68
2022/03/07 12:27:05;;;;;;;12.38;5.28;;;7.80;99.90;;;;;;5114677;27;20042;-68
2022/03/07 12:29:31;;;;;;;14.10;5.13;;;7.60;99.90;;;;;;5113715;27;20051;-68
2022/03/07 12:31:58;;;;;;;10.02;4.65;;;7.60;99.90;;;;;;5111794;27;20049;-68
2022/03/07 12:34:27;;;;;;;16.08;5.22;;;7.60;99.90;;;;;;5114693;27;20374;-68
2022/03/07 12:36:59;;;;;;;12.48;5.22;;;7.50;99.90;;;;;;5116798;27;20089;-68
2022/03/07 12:39:26;;;;;;;;;;;7.60;99.90;;;;;;5116645;27;20035;-68